< < Back
Terminal Aerodrome Forecast


Current Version              Previous Versions:   1  2  3  4  5  6  7  8  9  

Terminal Aerodrome Forecast

363
FTUS42 KGSP 302332
TAFGSP
TAF
KGSP 302332Z 0100/0124 24009KT P6SM VCTS BKN120CB
      TEMPO 0100/0102 4SM TSRA BKN040CB
     FM010200 23005KT P6SM FEW120 BKN250
     FM011700 23009KT P6SM SCT050
     FM012000 24011G19KT P6SM BKN060 PROB30 0120/0124 4SM TSRA
      BKN040CB=

Latest METAR

950
SAUS70 KWBC 010200 RRI
MTRGSP
METAR KGSP 010153Z 20004KT 10SM CLR 23/19 A2995 RMK AO2 SLP131
T02280194


USA.gov is the U.S. government's official web portal to all federal, state and local government web resources and services.